Trenton, NJ (08638)

3:11 AM EST en Noviembre 27, 2014 (GMT -0500)
Colonial Lakelands | Change Station
CLOSE
Current Station
Estación meteorológica personal
Location: Lawrence Township, NJ
Altura: 89 ft
Estaciones meteorológicas cercanas

Alt 89 ft 40.25 °N, 74.73 °W | Updated 13 minutes ago

Nublado
Nublado
34.0 ° F
Sensación térmica 34 ° F
N
0.0
Viento Variable Viento desde Oeste

Hoy
Alta -- | Baja -- ° F
--% Posibilidad de precipitaciones
Ayer
Alta -- | Baja -- ° F
Precip. -- pul
6:58 AM 4:34 PM
Creciente, 27% visible
Presión 29.91 pul
Visibilidad 10.0 Millas
Nubes Nublado 5500 ft
Vientos helados 34 ° F
Punto de rocío 33 ° F
Humedad 96%
Precipitaciones 0.02 pul
Espesor de la nieve No disponible.
UV 0 de una escala de 12
Polen .10 de una escala de 12
Calidad del aire No disponible.
Flu Activity No disponible.
METAR KTTN 270753Z AUTO 30006KT 10SM OVC055 02/M01 A2992 RMK AO2 SLP128 T00171011

More Conditions Fewer Conditions

Presión 29.91 pul
Visibilidad 10.0 Millas
Nubes Nublado 5500 ft
Vientos helados 34 ° F
Punto de rocío 33 ° F
Humedad 96%
Precipitaciones 0.02 pul
Espesor de la nieve No disponible.
UV 0 de una escala de 12
Polen .10 de una escala de 12
Calidad del aire No disponible.
Flu Activity No disponible.
METAR KTTN 270753Z AUTO 30006KT 10SM OVC055 02/M01 A2992 RMK AO2 SLP128 T00171011

More Conditions Fewer Conditions

10-Day Weather Forecast

Almanac

Astronomía

Nov. 27, 2014 Salida Puesta
Hora real
Crepúsculo civil
Crepúsculo náutico
Crepúsculo astronómico
Luna
Horas de luz
Horas de luz
Tomorrow will be .
, % of the Moon is Illuminated

Extremos de hoy

Máximos del estado Bajos del estado

Community

WunderPhotos

Upload Photos

1,773,965 ¡fotos cargadas!

WunderBlogs® & News

Nearby

Calidad del aire

  Calidad del aire Índice AQ Contaminante
Not available.

Grosos de nieve

Estación Profundido Altura

Actividad de terremotos

Ciudad Distance Mag. Tiempo y dato
Magnitud mínima muestra es 2,5.

Temperaturas de aguas costeras

Lugar Temperatura

Estaciones meteorológicas cercanas